createdAt,value
2023-01-23T00:01:00.911Z,6.60
2023-01-23T00:03:31.751Z,6.50
2023-01-23T00:06:00.600Z,6.50
2023-01-23T00:08:29.413Z,6.60
2023-01-23T00:11:16.688Z,6.60
2023-01-23T00:14:05.431Z,6.50
2023-01-23T00:16:35.231Z,6.50
2023-01-23T00:19:04.215Z,6.50
2023-01-23T00:21:33.403Z,6.70
2023-01-23T00:24:20.712Z,6.70
2023-01-23T00:26:49.464Z,6.70
2023-01-23T00:29:37.272Z,5.90
2023-01-23T00:32:06.271Z,6.80
2023-01-23T00:34:35.047Z,6.80
2023-01-23T00:37:22.257Z,6.80
2023-01-23T00:43:32.944Z,6.90
2023-01-23T00:46:22.858Z,7.00
2023-01-23T00:48:52.345Z,7.00
2023-01-23T00:54:07.778Z,6.90
2023-01-23T00:56:36.476Z,7.10
2023-01-23T00:59:24.049Z,7.10
2023-01-23T01:02:12.898Z,7.10
2023-01-23T01:04:41.761Z,7.20
2023-01-23T01:07:10.555Z,7.00
2023-01-23T01:09:39.260Z,7.00
2023-01-23T01:12:08.799Z,7.10
2023-01-23T01:14:57.198Z,7.10
2023-01-23T01:17:27.493Z,7.10
2023-01-23T01:20:15.610Z,7.10
2023-01-23T01:22:44.394Z,7.10
2023-01-23T01:25:32.503Z,7.10
2023-01-23T01:28:01.432Z,7.10
2023-01-23T01:30:30.544Z,7.20
2023-01-23T01:33:00.842Z,7.20
2023-01-23T01:35:30.080Z,7.20
2023-01-23T01:37:59.087Z,7.10
2023-01-23T01:40:29.014Z,7.10
2023-01-23T01:43:35.708Z,7.30
2023-01-23T01:46:25.037Z,7.40
2023-01-23T01:49:26.093Z,7.40
2023-01-23T01:52:14.409Z,7.60
2023-01-23T01:54:47.004Z,7.70
2023-01-23T01:57:37.005Z,7.80
2023-01-23T02:00:10.428Z,7.90
2023-01-23T02:02:52.192Z,8.00
2023-01-23T02:05:27.840Z,8.00
2023-01-23T02:08:21.104Z,7.90
2023-01-23T02:11:08.945Z,8.10
2023-01-23T02:17:02.684Z,8.00
2023-01-23T02:20:00.901Z,8.10
2023-01-23T02:22:41.977Z,8.20
2023-01-23T02:28:59.517Z,8.10
2023-01-23T02:31:35.471Z,8.30
2023-01-23T02:34:04.810Z,8.20
2023-01-23T02:36:53.768Z,8.30
2023-01-23T02:39:22.652Z,8.40
2023-01-23T02:41:55.047Z,8.50
2023-01-23T02:47:37.969Z,8.50
2023-01-23T02:50:07.572Z,8.40
2023-01-23T02:52:36.652Z,8.40
2023-01-23T02:55:07.160Z,8.50
2023-01-23T02:58:32.091Z,8.60
2023-01-23T03:01:00.965Z,8.70
2023-01-23T03:03:32.160Z,8.70
2023-01-23T03:06:19.844Z,8.70
2023-01-23T03:11:57.153Z,8.80
2023-01-23T03:14:26.940Z,8.90
2023-01-23T03:16:55.746Z,8.90
2023-01-23T03:19:51.676Z,8.80
2023-01-23T03:22:20.551Z,8.80
2023-01-23T03:24:49.250Z,8.80
2023-01-23T03:27:35.270Z,8.80
2023-01-23T03:30:22.245Z,8.80
2023-01-23T03:33:11.532Z,8.80
2023-01-23T03:36:17.850Z,8.60
2023-01-23T03:39:00.779Z,8.80
2023-01-23T03:41:30.659Z,8.80
2023-01-23T03:44:04.873Z,8.90
2023-01-23T03:46:53.219Z,8.80
2023-01-23T03:49:22.200Z,8.80
2023-01-23T03:52:00.221Z,8.80
2023-01-23T03:54:30.341Z,8.70
2023-01-23T03:57:17.889Z,8.60
2023-01-23T04:02:53.488Z,8.60
2023-01-23T04:05:22.570Z,7.30
2023-01-23T04:07:52.838Z,8.60
2023-01-23T04:10:42.049Z,8.60
2023-01-23T04:13:15.951Z,8.50
2023-01-23T04:15:46.800Z,8.50
2023-01-23T04:18:36.250Z,8.30
2023-01-23T04:21:42.710Z,8.50
2023-01-23T04:24:13.423Z,8.60
2023-01-23T04:26:42.300Z,8.50
2023-01-23T04:29:29.751Z,8.60
2023-01-23T04:31:59.389Z,8.70
2023-01-23T04:34:28.168Z,8.60
2023-01-23T04:37:17.931Z,8.60
2023-01-23T04:39:48.721Z,9.00
2023-01-23T04:42:17.755Z,8.80
2023-01-23T04:45:25.313Z,8.80
2023-01-23T04:48:12.930Z,8.60
2023-01-23T04:50:41.995Z,8.40
2023-01-23T04:53:11.398Z,8.30
2023-01-23T04:56:00.523Z,8.30
2023-01-23T04:58:29.408Z,8.30
2023-01-23T05:01:39.198Z,8.20
2023-01-23T05:04:10.101Z,7.90
2023-01-23T05:06:58.130Z,8.00
2023-01-23T05:10:05.325Z,8.10
2023-01-23T05:12:35.769Z,8.00
2023-01-23T05:15:23.291Z,8.00
2023-01-23T05:17:53.200Z,7.90
2023-01-23T05:20:40.878Z,8.00
2023-01-23T05:23:09.746Z,7.90
2023-01-23T05:25:48.814Z,8.00
2023-01-23T05:28:37.737Z,7.90
2023-01-23T05:31:06.850Z,7.80
2023-01-23T05:33:42.619Z,8.00
2023-01-23T05:36:13.384Z,8.00
2023-01-23T05:41:30.783Z,8.00
2023-01-23T05:44:21.542Z,7.90
2023-01-23T05:46:54.910Z,7.90
2023-01-23T05:49:42.442Z,7.90
2023-01-23T05:52:14.372Z,8.00
2023-01-23T05:54:43.162Z,7.90
2023-01-23T05:57:13.561Z,8.00
2023-01-23T06:00:13.808Z,8.00
2023-01-23T06:03:15.050Z,8.00
2023-01-23T06:06:45.472Z,7.80
2023-01-23T06:09:14.271Z,7.80
2023-01-23T06:12:18.828Z,7.80
2023-01-23T06:15:06.958Z,7.80
2023-01-23T06:17:55.010Z,8.00
2023-01-23T06:20:43.471Z,8.20
2023-01-23T06:23:12.364Z,8.20
2023-01-23T06:25:41.550Z,8.30
2023-01-23T06:28:12.773Z,8.20
2023-01-23T06:30:41.658Z,8.00
2023-01-23T06:33:41.923Z,7.90
2023-01-23T06:36:13.331Z,8.00
2023-01-23T06:38:42.160Z,8.10
2023-01-23T06:41:14.071Z,7.80
2023-01-23T06:43:50.433Z,7.90
2023-01-23T06:46:37.714Z,8.00
2023-01-23T06:49:26.764Z,7.80
2023-01-23T06:51:55.578Z,7.80
2023-01-23T06:55:02.963Z,7.90
2023-01-23T06:57:31.993Z,8.10
2023-01-23T07:00:18.345Z,7.90
2023-01-23T07:02:47.664Z,8.00
2023-01-23T07:05:39.669Z,8.00
2023-01-23T07:08:28.845Z,8.00
2023-01-23T07:11:16.370Z,8.10
2023-01-23T07:13:45.923Z,7.80
2023-01-23T07:16:36.509Z,8.00
2023-01-23T07:19:05.780Z,8.10
2023-01-23T07:27:10.691Z,8.00
2023-01-23T07:29:39.553Z,7.90
2023-01-23T07:32:10.947Z,7.90
2023-01-23T07:35:34.415Z,8.00
2023-01-23T07:44:14.079Z,8.10
2023-01-23T07:47:19.872Z,7.90
2023-01-23T07:49:48.567Z,7.90
2023-01-23T07:52:17.343Z,8.00
2023-01-23T07:55:23.866Z,7.90
2023-01-23T07:58:47.330Z,7.90
2023-01-23T08:01:16.145Z,7.90
2023-01-23T08:04:02.175Z,8.00
2023-01-23T08:06:31.093Z,7.90
2023-01-23T08:09:18.252Z,8.00
2023-01-23T08:11:48.400Z,8.10
2023-01-23T08:14:35.802Z,8.00
2023-01-23T08:17:21.740Z,7.90
2023-01-23T08:19:51.079Z,8.00
2023-01-23T08:22:20.101Z,7.90
2023-01-23T08:24:48.861Z,8.00
2023-01-23T08:27:21.109Z,8.00
2023-01-23T08:29:49.845Z,8.10
2023-01-23T08:32:37.621Z,8.20
2023-01-23T08:35:07.189Z,7.90
2023-01-23T08:37:37.019Z,8.00
2023-01-23T08:40:06.660Z,8.00
2023-01-23T08:42:36.860Z,7.90
2023-01-23T08:45:41.861Z,8.00
2023-01-23T08:48:27.884Z,7.90
2023-01-23T08:51:34.372Z,8.10
2023-01-23T08:54:03.141Z,8.20
2023-01-23T08:56:31.921Z,8.20
2023-01-23T08:59:20.801Z,8.00
2023-01-23T09:02:08.150Z,8.20
2023-01-23T09:04:55.610Z,8.20
2023-01-23T09:07:24.370Z,8.10
2023-01-23T09:10:10.440Z,8.20
2023-01-23T09:12:39.190Z,8.30
2023-01-23T09:15:10.754Z,8.30
2023-01-23T09:17:58.135Z,8.40
2023-01-23T09:20:45.318Z,8.50
2023-01-23T09:23:14.091Z,8.50
2023-01-23T09:25:42.937Z,8.50
2023-01-23T09:28:11.682Z,8.50
2023-01-23T09:31:02.303Z,8.70
2023-01-23T09:33:49.542Z,8.60
2023-01-23T09:36:55.931Z,8.50
2023-01-23T09:39:24.852Z,8.40
2023-01-23T09:42:11.102Z,8.10
2023-01-23T09:45:01.969Z,8.30
2023-01-23T09:50:45.226Z,8.20
2023-01-23T09:53:16.949Z,8.30
2023-01-23T09:56:07.864Z,8.20
2023-01-23T09:58:57.850Z,8.10
2023-01-23T10:01:45.220Z,8.20
2023-01-23T10:04:18.293Z,8.50
2023-01-23T10:07:11.299Z,8.30
2023-01-23T10:10:36.240Z,8.50
2023-01-23T10:16:49.796Z,8.30
2023-01-23T10:19:53.258Z,8.20
2023-01-23T10:22:36.323Z,8.40
2023-01-23T10:25:14.138Z,8.40
2023-01-23T10:27:46.505Z,8.30
2023-01-23T10:30:24.284Z,8.10
2023-01-23T10:33:32.772Z,8.30
2023-01-23T10:36:17.650Z,8.40
2023-01-23T10:39:00.793Z,8.50
2023-01-23T10:42:24.333Z,8.30
2023-01-23T10:44:53.212Z,8.40
2023-01-23T10:47:50.086Z,8.20
2023-01-23T10:50:37.338Z,8.40
2023-01-23T10:53:18.304Z,8.40
2023-01-23T10:56:05.803Z,8.40
2023-01-23T10:58:39.233Z,8.50
2023-01-23T11:01:19.869Z,8.40
2023-01-23T11:04:27.602Z,8.50
2023-01-23T11:07:07.355Z,8.50
2023-01-23T11:09:58.384Z,8.50
2023-01-23T11:12:49.873Z,8.50
2023-01-23T11:15:59.171Z,8.60
2023-01-23T11:18:49.184Z,8.50
2023-01-23T11:21:26.144Z,8.40
2023-01-23T11:27:38.712Z,8.30
2023-01-23T11:30:28.853Z,8.50
2023-01-23T11:33:00.274Z,8.40
2023-01-23T11:36:01.583Z,8.50
2023-01-23T11:38:53.774Z,8.40
2023-01-23T11:41:27.696Z,8.40
2023-01-23T11:44:18.687Z,8.50
2023-01-23T11:47:06.811Z,8.30
2023-01-23T11:49:57.268Z,8.30
2023-01-23T11:52:37.705Z,8.50
2023-01-23T11:55:43.351Z,8.50
2023-01-23T11:58:28.356Z,8.50
2023-01-23T12:04:22.619Z,8.60
2023-01-23T12:07:18.589Z,8.50
2023-01-23T12:09:58.633Z,8.70
2023-01-23T12:12:51.351Z,8.50
2023-01-23T12:15:31.244Z,8.50
2023-01-23T12:18:27.158Z,8.70
2023-01-23T12:21:04.394Z,8.70
2023-01-23T12:24:19.234Z,8.70
2023-01-23T12:27:11.878Z,8.70
2023-01-23T12:30:09.135Z,8.70
2023-01-23T12:32:49.910Z,8.70
2023-01-23T12:35:52.755Z,8.50
2023-01-23T12:38:44.835Z,8.70
2023-01-23T12:41:22.368Z,8.70
2023-01-23T12:43:57.141Z,8.70
2023-01-23T12:46:49.619Z,8.80
2023-01-23T12:49:28.463Z,8.60
2023-01-23T12:52:19.645Z,8.50
2023-01-23T12:54:52.966Z,8.90
2023-01-23T12:57:46.236Z,8.40
2023-01-23T13:00:39.637Z,8.50
2023-01-23T13:03:37.397Z,8.50
2023-01-23T13:10:21.349Z,8.70
2023-01-23T13:12:50.986Z,8.80
2023-01-23T13:15:43.633Z,8.70
2023-01-23T13:18:43.455Z,8.70
2023-01-23T13:21:48.115Z,8.80
2023-01-23T13:24:59.444Z,8.90
2023-01-23T13:27:47.445Z,8.90
2023-01-23T13:30:39.534Z,8.80
2023-01-23T13:33:46.144Z,8.80
2023-01-23T13:36:39.431Z,8.80
2023-01-23T13:39:30.165Z,8.90
2023-01-23T13:42:35.730Z,9.00
2023-01-23T13:45:54.622Z,8.70
2023-01-23T14:22:58.245Z,8.50
2023-01-23T14:25:27.370Z,8.50
2023-01-23T14:28:07.947Z,8.60
2023-01-23T14:30:38.807Z,8.60
2023-01-23T14:33:19.556Z,8.50
2023-01-23T14:35:48.525Z,8.50
2023-01-23T14:38:38.436Z,8.50
2023-01-23T14:41:31.793Z,8.50
2023-01-23T14:44:20.094Z,8.50
2023-01-23T14:47:10.498Z,8.70
2023-01-23T14:49:59.228Z,8.60
2023-01-23T14:53:05.027Z,8.50
2023-01-23T14:56:13.441Z,8.50
2023-01-23T14:58:43.279Z,8.40
2023-01-23T15:01:29.836Z,8.40
2023-01-23T15:04:21.558Z,8.30
2023-01-23T15:06:55.543Z,8.50
2023-01-23T15:09:46.794Z,8.20
2023-01-23T15:12:33.976Z,8.50
2023-01-23T15:15:21.737Z,8.40
2023-01-23T15:18:39.815Z,8.30
2023-01-23T15:21:46.417Z,8.40
2023-01-23T15:24:54.734Z,8.50
2023-01-23T15:27:29.072Z,8.60
2023-01-23T15:31:00.660Z,8.40
2023-01-23T15:33:48.254Z,8.50
2023-01-23T15:36:26.867Z,8.50
2023-01-23T15:39:14.817Z,8.50
2023-01-23T15:42:21.468Z,8.50
2023-01-23T15:45:07.447Z,8.50
2023-01-23T15:47:36.662Z,8.50
2023-01-23T15:50:24.760Z,8.50
2023-01-23T15:53:13.588Z,8.50
2023-01-23T15:55:42.845Z,8.50
2023-01-23T15:58:33.501Z,8.60
2023-01-23T16:01:03.427Z,8.50
2023-01-23T16:03:32.183Z,8.50
2023-01-23T16:06:00.946Z,8.40
2023-01-23T16:08:31.783Z,8.40
2023-01-23T16:11:00.587Z,8.10
2023-01-23T16:13:49.371Z,8.40
2023-01-23T16:16:19.630Z,8.40
2023-01-23T16:18:48.418Z,8.40
2023-01-23T16:21:18.682Z,8.60
2023-01-23T16:23:48.072Z,8.30
2023-01-23T16:26:38.216Z,8.50
2023-01-23T16:29:13.995Z,8.50
2023-01-23T16:31:43.143Z,8.50
2023-01-23T16:34:11.907Z,8.50
2023-01-23T16:36:58.222Z,8.50
2023-01-23T16:39:30.763Z,8.50
2023-01-23T16:41:59.554Z,8.50
2023-01-23T16:44:30.453Z,8.50
2023-01-23T16:46:59.199Z,8.60
2023-01-23T16:49:28.056Z,8.60
2023-01-23T16:52:00.120Z,8.60
2023-01-23T16:54:50.020Z,8.60
2023-01-23T17:00:17.702Z,8.50
2023-01-23T17:05:54.022Z,8.50
2023-01-23T17:08:58.287Z,8.50
2023-01-23T17:11:46.615Z,8.30
2023-01-23T17:14:53.193Z,8.50
2023-01-23T17:17:59.507Z,8.40
2023-01-23T17:20:48.473Z,8.50
2023-01-23T17:23:17.340Z,8.40
2023-01-23T17:25:59.949Z,8.40
2023-01-23T17:31:20.434Z,8.50
2023-01-23T17:33:52.918Z,8.40
2023-01-23T17:36:40.571Z,8.40
2023-01-23T17:39:10.865Z,8.50
2023-01-23T17:41:59.012Z,8.40
2023-01-23T17:44:28.112Z,8.50
2023-01-23T17:47:15.798Z,8.60
2023-01-23T17:50:04.905Z,8.60
2023-01-23T17:52:52.195Z,8.60
2023-01-23T17:55:41.543Z,8.40
2023-01-23T17:58:47.495Z,8.50
2023-01-23T18:01:40.307Z,8.70
2023-01-23T18:04:34.668Z,8.50
2023-01-23T18:07:03.567Z,8.50
2023-01-23T18:09:52.958Z,8.60
2023-01-23T18:12:46.637Z,8.70
2023-01-23T18:18:21.209Z,8.70
2023-01-23T18:21:08.998Z,8.70
2023-01-23T18:23:40.308Z,8.60
2023-01-23T18:26:28.008Z,8.80
2023-01-23T18:29:07.644Z,8.80
2023-01-23T18:31:48.205Z,8.60
2023-01-23T18:34:39.630Z,8.70
2023-01-23T18:37:36.397Z,8.70
2023-01-23T18:40:13.865Z,8.70
2023-01-23T18:42:55.696Z,8.60
2023-01-23T18:45:43.491Z,8.60
2023-01-23T18:48:33.664Z,8.70
2023-01-23T18:54:13.556Z,8.50
2023-01-23T18:57:07.618Z,8.50
2023-01-23T19:00:01.135Z,8.60
2023-01-23T19:03:07.785Z,8.60
2023-01-23T19:05:54.425Z,8.60
2023-01-23T19:08:42.485Z,8.50
2023-01-23T19:11:33.295Z,8.50
2023-01-23T19:14:34.362Z,8.50
2023-01-23T19:17:31.342Z,8.40
2023-01-23T19:20:06.036Z,8.40
2023-01-23T19:23:09.158Z,8.50
2023-01-23T19:26:14.040Z,8.40
2023-01-23T19:29:19.055Z,8.50
2023-01-23T19:32:09.284Z,8.50
2023-01-23T19:34:39.537Z,8.50
2023-01-23T19:39:54.637Z,8.50
2023-01-23T19:43:13.745Z,8.60
2023-01-23T19:46:00.905Z,8.60
2023-01-23T19:48:49.047Z,8.60
2023-01-23T19:51:21.862Z,8.50
2023-01-23T19:54:27.797Z,8.60
2023-01-23T19:57:15.544Z,8.50
2023-01-23T20:00:02.699Z,8.60
2023-01-23T20:02:40.262Z,8.60
2023-01-23T20:05:10.017Z,8.60
2023-01-23T20:07:40.515Z,8.50
2023-01-23T20:10:30.190Z,8.50
2023-01-23T20:13:16.180Z,8.50
2023-01-23T20:16:07.740Z,8.60
2023-01-23T20:18:37.286Z,8.60
2023-01-23T20:21:06.685Z,8.70
2023-01-23T20:23:55.606Z,8.60
2023-01-23T20:26:25.305Z,8.50
2023-01-23T20:29:11.590Z,8.60
2023-01-23T20:31:40.474Z,8.60
2023-01-23T20:34:09.257Z,8.70
2023-01-23T20:37:13.608Z,8.60
2023-01-23T20:40:01.132Z,8.80
2023-01-23T20:42:47.285Z,8.80
2023-01-23T20:45:16.249Z,8.80
2023-01-23T20:47:46.274Z,8.70
2023-01-23T20:50:15.647Z,8.70
2023-01-23T20:53:02.117Z,8.70
2023-01-23T20:55:32.376Z,8.60
2023-01-23T20:58:19.408Z,8.60
2023-01-23T21:00:48.165Z,8.60
2023-01-23T21:03:16.925Z,8.60
2023-01-23T21:06:04.819Z,8.60
2023-01-23T21:08:52.363Z,8.60
2023-01-23T21:11:40.959Z,8.50
2023-01-23T21:14:09.833Z,8.50
2023-01-23T21:17:15.487Z,8.40
2023-01-23T21:20:40.080Z,8.50
2023-01-23T21:23:27.676Z,8.40
2023-01-23T21:26:17.076Z,8.20
2023-01-23T21:28:50.196Z,8.40
2023-01-23T21:31:41.554Z,8.00
2023-01-23T21:34:28.937Z,8.10
2023-01-23T21:36:57.767Z,8.20
2023-01-23T21:39:44.807Z,8.20
2023-01-23T21:42:15.725Z,8.20
2023-01-23T21:45:03.040Z,8.20
2023-01-23T21:48:07.445Z,8.20
2023-01-23T21:50:53.557Z,8.20
2023-01-23T21:53:58.806Z,8.10
2023-01-23T21:57:03.526Z,8.30
2023-01-23T21:59:34.327Z,8.20
2023-01-23T22:02:21.683Z,8.10
2023-01-23T22:05:09.227Z,8.20
2023-01-23T22:07:56.204Z,8.10
2023-01-23T22:10:25.081Z,8.00
2023-01-23T22:12:53.786Z,8.00
2023-01-23T22:15:22.940Z,8.00
2023-01-23T22:17:53.377Z,7.80
2023-01-23T22:20:22.145Z,8.00
2023-01-23T22:22:50.866Z,8.00
2023-01-23T22:25:38.458Z,8.10
2023-01-23T22:28:24.427Z,7.90
2023-01-23T22:30:53.434Z,7.90
2023-01-23T22:33:43.188Z,7.90
2023-01-23T22:36:14.824Z,8.00
2023-01-23T22:39:02.128Z,8.10
2023-01-23T22:41:30.947Z,8.00
2023-01-23T22:44:36.506Z,8.00
2023-01-23T22:47:22.715Z,8.00
2023-01-23T22:50:10.177Z,7.90
2023-01-23T22:52:57.325Z,8.00
2023-01-23T22:55:45.028Z,8.00
2023-01-23T22:58:13.756Z,7.90
2023-01-23T23:00:44.702Z,8.40
2023-01-23T23:03:32.604Z,8.00
2023-01-23T23:06:21.918Z,8.00
2023-01-23T23:09:10.725Z,8.00
2023-01-23T23:11:58.303Z,7.80
2023-01-23T23:14:27.105Z,8.00
2023-01-23T23:17:14.254Z,7.90
2023-01-23T23:19:43.094Z,8.10
2023-01-23T23:22:31.908Z,7.90
2023-01-23T23:25:18.249Z,7.80
2023-01-23T23:27:47.106Z,8.00
2023-01-23T23:30:52.580Z,7.80
2023-01-23T23:36:44.046Z,8.00
2023-01-23T23:42:18.415Z,7.80
2023-01-23T23:44:47.282Z,7.80
2023-01-23T23:47:16.626Z,7.80
2023-01-23T23:50:03.185Z,7.90
2023-01-23T23:52:35.962Z,7.90
2023-01-23T23:55:26.042Z,8.00
2023-01-23T23:57:54.785Z,7.90
